createdAt,value
2022-10-21T00:01:11.895Z,9.45
2022-10-21T00:03:38.983Z,9.35
2022-10-21T00:06:06.280Z,9.36
2022-10-21T00:08:32.977Z,9.32
2022-10-21T00:11:01.838Z,9.33
2022-10-21T00:13:30.084Z,9.24
2022-10-21T00:16:09.861Z,9.26
2022-10-21T00:18:38.221Z,9.13
2022-10-21T00:21:05.549Z,8.98
2022-10-21T00:23:31.976Z,9.06
2022-10-21T00:25:59.087Z,8.91
2022-10-21T00:28:26.853Z,8.85
2022-10-21T00:30:53.461Z,8.93
2022-10-21T00:33:20.022Z,8.84
2022-10-21T00:35:58.949Z,8.71
2022-10-21T00:38:25.922Z,8.75
2022-10-21T00:40:52.331Z,8.67
2022-10-21T00:43:18.913Z,8.59
2022-10-21T00:45:47.713Z,8.61
2022-10-21T00:48:28.755Z,8.66
2022-10-21T00:51:00.756Z,8.57
2022-10-21T00:53:28.311Z,8.56
2022-10-21T00:55:59.919Z,8.44
2022-10-21T00:58:30.698Z,8.43
2022-10-21T01:00:59.090Z,8.40
2022-10-21T01:03:27.858Z,8.35
2022-10-21T01:05:56.345Z,8.36
2022-10-21T01:08:23.852Z,8.34
2022-10-21T01:10:50.870Z,8.31
2022-10-21T01:13:17.195Z,8.34
2022-10-21T01:15:55.341Z,8.39
2022-10-21T01:18:39.254Z,8.33
2022-10-21T01:21:22.566Z,8.47
2022-10-21T01:24:37.023Z,8.33
2022-10-21T01:27:20.927Z,8.26
2022-10-21T01:30:26.795Z,8.24
2022-10-21T01:33:14.804Z,8.25
2022-10-21T01:36:15.880Z,8.21
2022-10-21T01:39:12.506Z,8.14
2022-10-21T01:42:17.263Z,8.35
2022-10-21T01:44:52.903Z,8.13
2022-10-21T01:47:24.421Z,8.04
2022-10-21T01:49:58.079Z,8.02
2022-10-21T01:52:24.623Z,7.92
2022-10-21T01:54:58.022Z,7.96
2022-10-21T01:57:31.033Z,7.98
2022-10-21T01:59:59.950Z,8.00
2022-10-21T02:02:32.919Z,7.97
2022-10-21T02:05:03.950Z,8.02
2022-10-21T02:07:30.491Z,7.92
2022-10-21T02:09:56.886Z,7.83
2022-10-21T02:12:26.048Z,7.78
2022-10-21T02:14:53.294Z,7.77
2022-10-21T02:17:22.218Z,7.89
2022-10-21T02:19:48.796Z,7.95
2022-10-21T02:22:21.359Z,7.88
2022-10-21T02:24:59.858Z,7.82
2022-10-21T02:27:26.597Z,7.85
2022-10-21T02:29:57.275Z,7.88
2022-10-21T02:32:38.970Z,7.79
2022-10-21T02:35:18.251Z,7.68
2022-10-21T02:37:55.800Z,7.64
2022-10-21T02:40:39.151Z,7.75
2022-10-21T02:43:10.368Z,7.71
2022-10-21T02:45:38.505Z,7.70
2022-10-21T02:48:05.295Z,7.86
2022-10-21T02:50:32.355Z,7.98
2022-10-21T02:52:58.786Z,7.88
2022-10-21T02:55:25.282Z,7.76
2022-10-21T02:57:51.702Z,7.78
2022-10-21T03:00:18.113Z,8.13
2022-10-21T03:02:44.523Z,8.16
2022-10-21T03:05:12.925Z,8.11
2022-10-21T03:07:40.567Z,8.16
2022-10-21T03:10:07.764Z,8.16
2022-10-21T03:12:34.228Z,8.25
2022-10-21T03:15:00.620Z,8.35
2022-10-21T03:17:27.028Z,8.60
2022-10-21T03:19:53.454Z,8.44
2022-10-21T03:22:19.843Z,8.42
2022-10-21T03:24:46.230Z,8.49
2022-10-21T03:27:12.675Z,8.83
2022-10-21T03:29:39.083Z,8.77
2022-10-21T03:32:05.751Z,8.87
2022-10-21T03:34:32.195Z,8.91
2022-10-21T03:36:58.589Z,8.81
2022-10-21T03:39:25.014Z,8.73
2022-10-21T03:41:51.442Z,8.68
2022-10-21T03:44:17.848Z,8.77
2022-10-21T03:46:44.304Z,8.75
2022-10-21T03:49:18.360Z,8.84
2022-10-21T03:51:47.489Z,8.93
2022-10-21T03:54:13.912Z,8.88
2022-10-21T03:56:40.336Z,8.91
2022-10-21T03:59:06.802Z,9.07
2022-10-21T04:01:33.281Z,8.96
2022-10-21T04:03:59.763Z,9.08
2022-10-21T04:06:26.247Z,9.10
2022-10-21T04:08:52.787Z,9.29
2022-10-21T04:11:19.320Z,9.22
2022-10-21T04:13:45.799Z,9.20
2022-10-21T04:16:15.418Z,9.15
2022-10-21T04:18:42.048Z,9.15
2022-10-21T04:21:08.856Z,9.14
2022-10-21T04:23:35.691Z,9.16
2022-10-21T04:26:02.150Z,9.18
2022-10-21T04:28:28.815Z,9.30
2022-10-21T04:30:55.428Z,9.41
2022-10-21T04:33:22.061Z,9.43
2022-10-21T04:35:48.508Z,9.39
2022-10-21T04:38:15.055Z,9.38
2022-10-21T04:40:41.651Z,9.28
2022-10-21T04:43:08.052Z,9.20
2022-10-21T04:45:34.464Z,9.17
2022-10-21T04:48:00.898Z,9.37
2022-10-21T04:50:27.300Z,9.37
2022-10-21T04:52:53.722Z,9.25
2022-10-21T04:55:20.136Z,9.29
2022-10-21T04:57:46.595Z,9.29
2022-10-21T05:00:13.443Z,9.22
2022-10-21T05:02:40.100Z,9.23
2022-10-21T05:05:07.163Z,9.21
2022-10-21T05:07:33.574Z,9.20
2022-10-21T05:09:59.968Z,9.15
2022-10-21T05:12:26.403Z,9.22
2022-10-21T05:14:52.869Z,9.31
2022-10-21T05:17:19.272Z,9.33
2022-10-21T05:19:45.695Z,9.56
2022-10-21T05:22:12.723Z,9.67
2022-10-21T05:24:39.147Z,9.48
2022-10-21T05:27:05.591Z,9.45
2022-10-21T05:29:32.049Z,9.69
2022-10-21T05:31:58.485Z,9.68
2022-10-21T05:34:24.922Z,9.52
2022-10-21T05:36:51.306Z,9.43
2022-10-21T05:39:17.735Z,9.37
2022-10-21T05:41:47.038Z,9.33
2022-10-21T05:44:14.722Z,9.30
2022-10-21T05:46:41.170Z,9.35
2022-10-21T05:49:07.748Z,9.32
2022-10-21T05:51:34.155Z,9.39
2022-10-21T05:54:02.836Z,9.57
2022-10-21T05:56:29.387Z,9.54
2022-10-21T05:58:55.796Z,9.48
2022-10-21T06:01:22.531Z,9.52
2022-10-21T06:03:49.061Z,9.54
2022-10-21T06:06:15.534Z,9.50
2022-10-21T06:08:42.031Z,9.56
2022-10-21T06:11:13.686Z,9.53
2022-10-21T06:13:40.999Z,9.41
2022-10-21T06:16:08.593Z,9.50
2022-10-21T06:18:35.930Z,9.52
2022-10-21T06:21:02.363Z,9.76
2022-10-21T06:23:28.762Z,9.68
2022-10-21T06:26:00.568Z,9.45
2022-10-21T06:28:29.709Z,9.52
2022-10-21T06:30:56.367Z,9.64
2022-10-21T06:33:26.157Z,9.62
2022-10-21T06:35:54.105Z,9.57
2022-10-21T06:38:20.559Z,9.63
2022-10-21T06:40:48.684Z,9.64
2022-10-21T06:43:15.914Z,9.59
2022-10-21T06:45:42.678Z,9.71
2022-10-21T06:48:09.172Z,9.86
2022-10-21T06:50:37.484Z,9.84
2022-10-21T06:53:03.800Z,9.75
2022-10-21T06:55:30.498Z,9.79
2022-10-21T06:57:56.930Z,9.78
2022-10-21T07:00:23.443Z,9.87
2022-10-21T07:02:49.920Z,9.88
2022-10-21T07:05:16.516Z,9.83
2022-10-21T07:07:42.943Z,9.85
2022-10-21T07:10:09.836Z,9.95
2022-10-21T07:12:36.328Z,9.94
2022-10-21T07:15:02.809Z,10.03
2022-10-21T07:17:31.015Z,10.00
2022-10-21T07:19:57.600Z,10.18
2022-10-21T07:22:24.142Z,10.41
2022-10-21T07:24:50.728Z,10.40
2022-10-21T07:27:17.201Z,10.38
2022-10-21T07:29:43.620Z,10.31
2022-10-21T07:32:10.033Z,10.45
2022-10-21T07:34:36.473Z,10.43
2022-10-21T07:37:02.961Z,10.31
2022-10-21T07:39:29.426Z,10.58
2022-10-21T07:41:57.381Z,10.55
2022-10-21T07:44:25.833Z,10.69
2022-10-21T07:46:52.743Z,10.59
2022-10-21T07:49:21.331Z,10.64
2022-10-21T07:51:50.088Z,10.77
2022-10-21T07:54:17.749Z,10.92
2022-10-21T07:56:47.800Z,11.09
2022-10-21T07:59:15.834Z,11.04
2022-10-21T08:01:50.920Z,10.97
2022-10-21T08:04:20.484Z,10.90
2022-10-21T08:06:48.019Z,11.13
2022-10-21T08:09:15.569Z,11.29
2022-10-21T08:11:42.252Z,11.50
2022-10-21T08:14:09.990Z,11.30
2022-10-21T08:16:38.836Z,11.22
2022-10-21T08:19:06.578Z,11.39
2022-10-21T08:21:33.194Z,11.21
2022-10-21T08:24:02.458Z,11.37
2022-10-21T08:26:29.074Z,11.32
2022-10-21T08:28:55.627Z,11.28
2022-10-21T08:31:22.687Z,11.35
2022-10-21T08:33:49.322Z,11.44
2022-10-21T08:36:19.446Z,11.57
2022-10-21T08:38:46.116Z,11.46
2022-10-21T08:41:37.698Z,11.69
2022-10-21T08:44:32.286Z,11.74
2022-10-21T08:47:31.500Z,11.82
2022-10-21T08:50:12.489Z,11.57
2022-10-21T08:53:01.701Z,11.65
2022-10-21T08:55:42.679Z,11.74
2022-10-21T08:58:21.685Z,11.54
2022-10-21T09:00:58.813Z,11.31
2022-10-21T09:04:04.859Z,11.19
2022-10-21T09:06:35.180Z,11.10
2022-10-21T09:09:05.382Z,11.25
2022-10-21T09:11:40.330Z,11.23
2022-10-21T09:14:37.520Z,11.09
2022-10-21T09:17:18.927Z,11.10
2022-10-21T09:19:51.425Z,11.16
2022-10-21T09:22:38.994Z,11.28
2022-10-21T09:25:19.156Z,11.45
2022-10-21T09:27:58.905Z,11.51
2022-10-21T09:30:25.754Z,11.66
2022-10-21T09:32:57.416Z,11.69
2022-10-21T09:35:36.575Z,12.00
2022-10-21T09:38:12.054Z,11.98
2022-10-21T09:40:38.520Z,11.97
2022-10-21T09:43:10.927Z,12.23
2022-10-21T09:45:40.233Z,12.26
2022-10-21T09:48:06.966Z,12.21
2022-10-21T09:50:35.161Z,12.55
2022-10-21T09:53:14.790Z,12.81
2022-10-21T09:55:43.199Z,12.53
2022-10-21T09:58:23.100Z,12.65
2022-10-21T10:00:50.454Z,12.71
2022-10-21T10:03:52.887Z,12.61
2022-10-21T10:06:31.494Z,12.67
2022-10-21T10:09:33.214Z,12.63
2022-10-21T10:12:14.135Z,12.96
2022-10-21T10:14:43.000Z,13.37
2022-10-21T10:17:25.641Z,13.21
2022-10-21T10:20:04.445Z,13.58
2022-10-21T10:23:01.496Z,13.39
2022-10-21T10:25:34.257Z,13.55
2022-10-21T10:28:25.572Z,13.41
2022-10-21T10:30:56.828Z,13.88
2022-10-21T10:33:26.692Z,14.11
2022-10-21T10:35:55.957Z,15.32
2022-10-21T10:38:36.021Z,15.81
2022-10-21T10:41:06.778Z,14.88
2022-10-21T10:43:36.525Z,14.61
2022-10-21T10:46:07.270Z,14.33
2022-10-21T10:48:41.864Z,14.11
2022-10-21T10:51:23.608Z,14.22
2022-10-21T10:54:17.374Z,14.36
2022-10-21T10:56:49.802Z,14.19
2022-10-21T10:59:16.171Z,14.13
2022-10-21T11:01:56.479Z,14.58
2022-10-21T11:04:33.767Z,14.83
2022-10-21T11:07:12.153Z,14.95
2022-10-21T11:09:38.676Z,15.25
2022-10-21T11:12:16.899Z,14.79
2022-10-21T11:14:49.967Z,15.20
2022-10-21T11:17:19.451Z,15.34
2022-10-21T11:20:04.355Z,16.12
2022-10-21T11:22:45.958Z,16.34
2022-10-21T11:25:47.376Z,16.29
2022-10-21T11:28:27.577Z,17.14
2022-10-21T11:30:59.766Z,16.81
2022-10-21T11:33:26.415Z,16.89
2022-10-21T11:36:04.823Z,16.50
2022-10-21T11:38:46.534Z,16.63
2022-10-21T11:41:21.851Z,16.45
2022-10-21T11:44:29.309Z,16.18
2022-10-21T11:47:18.728Z,16.50
2022-10-21T11:49:59.919Z,16.76
2022-10-21T11:52:32.241Z,16.53
2022-10-21T11:55:10.578Z,16.33
2022-10-21T11:58:12.076Z,16.03
2022-10-21T12:01:04.106Z,16.01
2022-10-21T12:04:15.831Z,15.87
2022-10-21T12:07:00.199Z,15.87
2022-10-21T12:09:38.312Z,15.74
2022-10-21T12:12:16.402Z,15.32
2022-10-21T12:14:59.415Z,15.04
2022-10-21T12:17:26.262Z,15.03
2022-10-21T12:20:00.540Z,14.98
2022-10-21T12:22:28.950Z,14.90
2022-10-21T12:25:05.791Z,15.22
2022-10-21T12:27:41.830Z,15.16
2022-10-21T12:30:14.510Z,15.35
2022-10-21T12:33:05.973Z,15.90
2022-10-21T12:35:53.055Z,16.47
2022-10-21T12:38:34.101Z,16.63
2022-10-21T12:41:19.603Z,16.67
2022-10-21T12:44:12.879Z,17.51
2022-10-21T12:46:51.677Z,18.84
2022-10-21T12:49:22.801Z,18.82
2022-10-21T12:52:11.527Z,19.88
2022-10-21T12:54:47.032Z,20.91
2022-10-21T12:57:36.405Z,21.32
2022-10-21T13:00:44.391Z,21.27
2022-10-21T13:03:35.646Z,22.13
2022-10-21T13:06:06.632Z,23.74
2022-10-21T13:08:56.895Z,23.52
2022-10-21T13:11:41.572Z,25.02
2022-10-21T13:14:41.176Z,23.43
2022-10-21T13:17:23.170Z,24.01
2022-10-21T13:19:54.535Z,23.25
2022-10-21T13:22:42.244Z,22.39
2022-10-21T13:25:24.911Z,22.00
2022-10-21T13:27:54.730Z,22.57
2022-10-21T13:30:29.613Z,21.76
2022-10-21T13:33:20.138Z,21.01
2022-10-21T13:36:06.970Z,20.58
2022-10-21T13:38:45.274Z,19.33
2022-10-21T13:41:25.970Z,19.05
2022-10-21T13:43:56.778Z,18.46
2022-10-21T13:46:55.796Z,18.23
2022-10-21T13:49:31.101Z,18.20
2022-10-21T13:51:58.276Z,17.94
2022-10-21T13:54:26.363Z,17.81
2022-10-21T13:56:52.802Z,17.50
2022-10-21T13:59:29.799Z,17.84
2022-10-21T14:01:57.710Z,17.85
2022-10-21T14:04:27.230Z,18.18
2022-10-21T14:06:58.034Z,18.99
2022-10-21T14:09:31.809Z,19.73
2022-10-21T14:12:01.975Z,19.68
2022-10-21T14:14:29.888Z,20.30
2022-10-21T14:17:00.195Z,20.63
2022-10-21T14:19:31.302Z,20.06
2022-10-21T14:22:00.574Z,19.73
2022-10-21T14:24:44.180Z,19.20
2022-10-21T14:27:14.549Z,18.49
2022-10-21T14:29:43.878Z,18.11
2022-10-21T14:32:16.069Z,18.01
2022-10-21T14:35:22.740Z,18.01
2022-10-21T14:37:52.489Z,17.03
2022-10-21T14:40:33.461Z,16.98
2022-10-21T14:43:08.506Z,16.99
2022-10-21T14:45:38.585Z,16.85
2022-10-21T14:48:11.707Z,16.45
2022-10-21T14:50:40.687Z,16.45
2022-10-21T14:53:16.846Z,16.18
2022-10-21T14:55:44.256Z,16.20
2022-10-21T15:00:56.264Z,15.97
2022-10-21T15:03:44.436Z,15.74
2022-10-21T15:06:17.592Z,15.55
2022-10-21T15:08:57.256Z,15.55
2022-10-21T15:11:39.667Z,15.48
2022-10-21T15:14:15.152Z,15.31
2022-10-21T15:16:54.069Z,15.13
2022-10-21T15:19:25.656Z,15.05
2022-10-21T15:22:01.325Z,14.92
2022-10-21T15:24:46.238Z,14.82
2022-10-21T15:27:26.501Z,14.64
2022-10-21T15:29:53.229Z,14.57
2022-10-21T15:32:24.500Z,14.44
2022-10-21T15:34:54.976Z,14.32
2022-10-21T15:37:21.439Z,14.17
2022-10-21T15:39:48.547Z,14.02
2022-10-21T15:42:17.980Z,13.87
2022-10-21T15:44:49.020Z,13.76
2022-10-21T15:47:15.618Z,13.62
2022-10-21T15:49:43.196Z,13.53
2022-10-21T15:52:10.275Z,13.41
2022-10-21T15:54:36.677Z,13.30
2022-10-21T15:57:14.319Z,13.18
2022-10-21T15:59:40.790Z,13.07
2022-10-21T16:02:14.017Z,12.94
2022-10-21T16:04:43.316Z,12.85
2022-10-21T16:07:22.218Z,12.76
2022-10-21T16:09:48.710Z,12.72
2022-10-21T16:12:16.903Z,12.67
2022-10-21T16:14:43.355Z,12.68
2022-10-21T16:17:11.585Z,12.71
2022-10-21T16:19:38.088Z,12.67
2022-10-21T16:22:14.689Z,12.69
2022-10-21T16:24:41.116Z,12.70
2022-10-21T16:27:12.806Z,12.72
2022-10-21T16:29:39.276Z,12.71
2022-10-21T16:32:06.420Z,12.69
2022-10-21T16:34:32.940Z,12.66
2022-10-21T16:37:01.353Z,12.73
2022-10-21T16:39:28.081Z,12.77
2022-10-21T16:41:54.668Z,12.78
2022-10-21T16:44:21.179Z,12.77
2022-10-21T16:46:52.153Z,12.75
2022-10-21T16:49:22.535Z,12.76
2022-10-21T16:51:49.207Z,12.75
2022-10-21T16:54:15.927Z,12.78
2022-10-21T16:56:42.394Z,12.78
2022-10-21T16:59:08.965Z,12.79
2022-10-21T17:01:35.503Z,12.77
2022-10-21T17:04:02.086Z,12.73
2022-10-21T17:06:28.650Z,12.66
2022-10-21T17:08:55.828Z,12.57
2022-10-21T17:11:34.457Z,12.45
2022-10-21T17:14:02.035Z,12.31
2022-10-21T17:16:28.485Z,12.24
2022-10-21T17:18:55.053Z,12.16
2022-10-21T17:21:24.491Z,12.10
2022-10-21T17:23:52.069Z,12.03
2022-10-21T17:26:19.565Z,12.04
2022-10-21T17:28:46.812Z,11.99
2022-10-21T17:31:21.819Z,11.91
2022-10-21T17:33:49.024Z,11.88
2022-10-21T17:36:16.795Z,11.86
2022-10-21T17:38:43.422Z,11.83
2022-10-21T17:41:11.399Z,11.79
2022-10-21T17:43:37.821Z,11.77
2022-10-21T17:46:04.997Z,11.80
2022-10-21T17:48:32.095Z,11.75
2022-10-21T17:51:01.473Z,11.64
2022-10-21T17:53:29.484Z,11.60
2022-10-21T17:56:00.508Z,11.61
2022-10-21T17:58:28.303Z,11.58
2022-10-21T18:00:58.236Z,11.48
2022-10-21T18:03:28.760Z,11.50
2022-10-21T18:05:56.167Z,11.46
2022-10-21T18:08:23.859Z,11.46
2022-10-21T18:10:55.357Z,11.47
2022-10-21T18:13:23.027Z,11.46
2022-10-21T18:15:50.388Z,11.42
2022-10-21T18:18:18.284Z,11.34
2022-10-21T18:20:44.862Z,11.42
2022-10-21T18:23:12.030Z,11.59
2022-10-21T18:25:39.941Z,11.63
2022-10-21T18:28:07.303Z,11.67
2022-10-21T18:30:43.270Z,11.63
2022-10-21T18:33:10.484Z,11.63
2022-10-21T18:35:37.470Z,11.60
2022-10-21T18:38:04.223Z,11.74
2022-10-21T18:40:30.795Z,11.78
2022-10-21T18:42:57.255Z,11.71
2022-10-21T18:45:23.865Z,11.55
2022-10-21T18:47:51.577Z,11.54
2022-10-21T18:50:18.128Z,11.53
2022-10-21T18:52:44.631Z,11.48
2022-10-21T18:55:11.041Z,11.60
2022-10-21T18:57:38.081Z,11.83
2022-10-21T19:00:06.111Z,11.87
2022-10-21T19:02:32.593Z,11.72
2022-10-21T19:05:01.983Z,11.66
2022-10-21T19:07:29.252Z,11.93
2022-10-21T19:09:55.967Z,12.07
2022-10-21T19:12:23.655Z,12.12
2022-10-21T19:14:50.759Z,12.07
2022-10-21T19:17:17.343Z,12.09
2022-10-21T19:19:43.876Z,12.24
2022-10-21T19:22:10.384Z,12.37
2022-10-21T19:24:36.835Z,12.29
2022-10-21T19:27:03.726Z,12.37
2022-10-21T19:29:31.268Z,12.26
2022-10-21T19:31:57.663Z,12.45
2022-10-21T19:34:27.910Z,12.36
2022-10-21T19:36:54.794Z,12.41
2022-10-21T19:39:21.622Z,12.32
2022-10-21T19:41:48.397Z,12.40
2022-10-21T19:44:14.851Z,12.38
2022-10-21T19:46:41.548Z,12.47
2022-10-21T19:49:09.529Z,12.50
2022-10-21T19:51:37.165Z,12.50
2022-10-21T19:54:05.161Z,12.54
2022-10-21T19:56:34.406Z,12.55
2022-10-21T19:59:04.831Z,12.55
2022-10-21T20:01:32.741Z,12.63
2022-10-21T20:04:01.084Z,12.67
2022-10-21T20:06:29.916Z,12.67
2022-10-21T20:08:58.338Z,12.63
2022-10-21T20:11:25.573Z,12.62
2022-10-21T20:13:52.366Z,12.58
2022-10-21T20:16:23.908Z,12.59
2022-10-21T20:18:51.317Z,12.62
2022-10-21T20:21:18.335Z,12.68
2022-10-21T20:23:45.262Z,12.72
2022-10-21T20:26:12.272Z,12.78
2022-10-21T20:28:38.817Z,12.77
2022-10-21T20:31:11.267Z,12.81
2022-10-21T20:33:41.410Z,12.85
2022-10-21T20:36:15.847Z,12.87
2022-10-21T20:38:42.762Z,12.85
2022-10-21T20:41:13.055Z,12.93
2022-10-21T20:43:40.795Z,13.00
2022-10-21T20:46:12.550Z,13.13
2022-10-21T20:48:48.153Z,13.14
2022-10-21T20:51:17.915Z,13.30
2022-10-21T20:53:50.086Z,13.24
2022-10-21T20:56:16.647Z,13.16
2022-10-21T20:58:43.192Z,13.28
2022-10-21T21:01:13.450Z,13.28
2022-10-21T21:03:42.535Z,13.19
2022-10-21T21:06:10.384Z,13.14
2022-10-21T21:08:44.559Z,13.23
2022-10-21T21:11:16.311Z,13.20
2022-10-21T21:13:44.579Z,13.26
2022-10-21T21:16:15.322Z,13.40
2022-10-21T21:18:43.922Z,13.34
2022-10-21T21:21:14.993Z,13.34
2022-10-21T21:23:42.767Z,13.33
2022-10-21T21:26:10.419Z,13.42
2022-10-21T21:28:37.779Z,13.40
2022-10-21T21:31:05.996Z,13.48
2022-10-21T21:33:33.244Z,13.41
2022-10-21T21:36:00.466Z,13.46
2022-10-21T21:38:28.255Z,13.47
2022-10-21T21:40:54.947Z,13.51
2022-10-21T21:43:22.074Z,13.46
2022-10-21T21:45:48.558Z,13.37
2022-10-21T21:50:47.567Z,13.55
2022-10-21T21:53:16.467Z,13.60
2022-10-21T21:55:43.164Z,13.68
2022-10-21T21:58:10.003Z,13.62
2022-10-21T22:00:36.929Z,13.59
2022-10-21T22:03:04.501Z,13.46
2022-10-21T22:05:33.788Z,13.61
2022-10-21T22:08:01.335Z,13.71
2022-10-21T22:10:28.504Z,13.72
2022-10-21T22:12:56.511Z,13.64
2022-10-21T22:15:43.208Z,13.52
2022-10-21T22:18:10.842Z,13.57
2022-10-21T22:20:39.469Z,13.66
2022-10-21T22:23:06.176Z,13.45
2022-10-21T22:25:32.655Z,13.58
2022-10-21T22:27:59.077Z,13.47
2022-10-21T22:30:25.480Z,13.52
2022-10-21T22:32:51.888Z,13.48
2022-10-21T22:35:18.406Z,13.47
2022-10-21T22:37:44.855Z,13.40
2022-10-21T22:40:11.826Z,13.34
2022-10-21T22:42:38.297Z,13.30
2022-10-21T22:45:05.335Z,13.28
2022-10-21T22:47:31.734Z,13.27
2022-10-21T22:49:58.137Z,13.31
2022-10-21T22:52:24.560Z,13.31
2022-10-21T22:54:50.953Z,13.31
2022-10-21T22:57:17.447Z,13.26
2022-10-21T22:59:44.322Z,13.26
2022-10-21T23:02:11.902Z,13.25
2022-10-21T23:04:38.316Z,13.28
2022-10-21T23:07:04.872Z,13.36
2022-10-21T23:09:31.732Z,13.37
2022-10-21T23:11:58.244Z,13.38
2022-10-21T23:14:24.751Z,13.36
2022-10-21T23:16:52.360Z,13.44
2022-10-21T23:19:18.783Z,13.44
2022-10-21T23:21:45.256Z,13.45
2022-10-21T23:24:12.264Z,13.46
2022-10-21T23:26:38.740Z,13.41
2022-10-21T23:29:05.137Z,13.39
2022-10-21T23:31:31.771Z,13.41
2022-10-21T23:33:58.198Z,13.35
2022-10-21T23:36:24.861Z,13.43
2022-10-21T23:38:54.444Z,13.39
2022-10-21T23:41:22.926Z,13.35
2022-10-21T23:43:49.380Z,13.30
2022-10-21T23:46:15.914Z,13.36
2022-10-21T23:48:42.417Z,13.35
2022-10-21T23:51:08.890Z,13.36
2022-10-21T23:53:35.423Z,13.44
2022-10-21T23:56:01.969Z,13.43
2022-10-21T23:58:28.412Z,13.52
